sensor_id;sensor_type;location;lat;lon;timestamp;P1;durP1;ratioP1;P2;durP2;ratioP2
10586;SDS011;5341;47.606;7.576;2023-08-30T00:01:44;3.47;;;2.83;;
10586;SDS011;5341;47.606;7.576;2023-08-30T00:04:12;5.40;;;3.30;;
10586;SDS011;5341;47.606;7.576;2023-08-30T00:06:39;5.13;;;2.88;;
10586;SDS011;5341;47.606;7.576;2023-08-30T00:09:07;5.22;;;3.20;;
10586;SDS011;5341;47.606;7.576;2023-08-30T00:11:36;4.05;;;3.25;;
10586;SDS011;5341;47.606;7.576;2023-08-30T00:14:04;3.15;;;2.85;;
10586;SDS011;5341;47.606;7.576;2023-08-30T00:16:33;2.83;;;2.53;;
10586;SDS011;5341;47.606;7.576;2023-08-30T00:19:00;6.38;;;2.92;;
10586;SDS011;5341;47.606;7.576;2023-08-30T00:21:29;3.28;;;2.97;;
10586;SDS011;5341;47.606;7.576;2023-08-30T00:23:56;2.90;;;2.60;;
10586;SDS011;5341;47.606;7.576;2023-08-30T00:26:25;3.08;;;2.60;;
10586;SDS011;5341;47.606;7.576;2023-08-30T00:28:55;5.55;;;2.63;;
10586;SDS011;5341;47.606;7.576;2023-08-30T00:31:23;4.70;;;2.70;;
10586;SDS011;5341;47.606;7.576;2023-08-30T00:33:50;4.25;;;2.60;;
10586;SDS011;5341;47.606;7.576;2023-08-30T00:36:18;3.13;;;2.83;;
10586;SDS011;5341;47.606;7.576;2023-08-30T00:38:46;3.13;;;2.83;;
10586;SDS011;5341;47.606;7.576;2023-08-30T00:41:14;4.40;;;2.90;;
10586;SDS011;5341;47.606;7.576;2023-08-30T00:43:42;5.25;;;3.00;;
10586;SDS011;5341;47.606;7.576;2023-08-30T00:46:11;2.92;;;2.72;;
10586;SDS011;5341;47.606;7.576;2023-08-30T00:48:41;5.82;;;3.47;;
10586;SDS011;5341;47.606;7.576;2023-08-30T00:51:10;4.28;;;3.08;;
10586;SDS011;5341;47.606;7.576;2023-08-30T00:53:38;5.30;;;3.20;;
10586;SDS011;5341;47.606;7.576;2023-08-30T00:56:07;3.72;;;3.42;;
10586;SDS011;5341;47.606;7.576;2023-08-30T00:58:34;3.45;;;3.10;;
10586;SDS011;5341;47.606;7.576;2023-08-30T01:01:03;3.60;;;3.13;;
10586;SDS011;5341;47.606;7.576;2023-08-30T01:03:36;3.20;;;2.90;;
10586;SDS011;5341;47.606;7.576;2023-08-30T01:06:04;3.55;;;3.03;;
10586;SDS011;5341;47.606;7.576;2023-08-30T01:08:32;4.95;;;2.92;;
10586;SDS011;5341;47.606;7.576;2023-08-30T01:11:05;4.63;;;3.10;;
10586;SDS011;5341;47.606;7.576;2023-08-30T01:13:41;3.92;;;2.92;;
10586;SDS011;5341;47.606;7.576;2023-08-30T01:16:12;4.93;;;3.28;;
10586;SDS011;5341;47.606;7.576;2023-08-30T01:18:44;4.25;;;3.30;;
10586;SDS011;5341;47.606;7.576;2023-08-30T01:21:17;4.03;;;3.13;;
10586;SDS011;5341;47.606;7.576;2023-08-30T01:23:53;3.30;;;3.00;;
10586;SDS011;5341;47.606;7.576;2023-08-30T01:26:26;5.60;;;3.72;;
10586;SDS011;5341;47.606;7.576;2023-08-30T01:29:05;4.45;;;3.70;;
10586;SDS011;5341;47.606;7.576;2023-08-30T01:31:35;4.22;;;3.80;;
10586;SDS011;5341;47.606;7.576;2023-08-30T01:34:04;4.90;;;4.40;;
10586;SDS011;5341;47.606;7.576;2023-08-30T01:36:32;4.72;;;4.25;;
10586;SDS011;5341;47.606;7.576;2023-08-30T01:39:00;5.57;;;4.82;;
10586;SDS011;5341;47.606;7.576;2023-08-30T01:41:30;5.03;;;4.53;;
10586;SDS011;5341;47.606;7.576;2023-08-30T01:43:59;5.35;;;4.85;;
10586;SDS011;5341;47.606;7.576;2023-08-30T01:46:31;5.68;;;5.00;;
10586;SDS011;5341;47.606;7.576;2023-08-30T01:49:00;5.35;;;4.85;;
10586;SDS011;5341;47.606;7.576;2023-08-30T01:51:29;6.07;;;5.32;;
10586;SDS011;5341;47.606;7.576;2023-08-30T01:54:01;6.15;;;5.63;;
10586;SDS011;5341;47.606;7.576;2023-08-30T01:56:30;8.10;;;6.28;;
10586;SDS011;5341;47.606;7.576;2023-08-30T01:58:58;6.68;;;5.72;;
10586;SDS011;5341;47.606;7.576;2023-08-30T02:01:30;6.18;;;5.68;;
10586;SDS011;5341;47.606;7.576;2023-08-30T02:03:59;5.57;;;4.93;;
10586;SDS011;5341;47.606;7.576;2023-08-30T02:06:29;6.57;;;5.35;;
10586;SDS011;5341;47.606;7.576;2023-08-30T02:09:03;6.50;;;5.38;;
10586;SDS011;5341;47.606;7.576;2023-08-30T02:11:36;5.78;;;5.13;;
10586;SDS011;5341;47.606;7.576;2023-08-30T02:14:06;5.60;;;5.10;;
10586;SDS011;5341;47.606;7.576;2023-08-30T02:16:40;6.13;;;4.95;;
10586;SDS011;5341;47.606;7.576;2023-08-30T02:19:08;5.68;;;5.05;;
10586;SDS011;5341;47.606;7.576;2023-08-30T02:21:36;4.75;;;4.35;;
10586;SDS011;5341;47.606;7.576;2023-08-30T02:24:04;5.75;;;4.95;;
10586;SDS011;5341;47.606;7.576;2023-08-30T02:26:32;5.50;;;5.00;;
10586;SDS011;5341;47.606;7.576;2023-08-30T02:28:59;4.63;;;4.22;;
10586;SDS011;5341;47.606;7.576;2023-08-30T02:31:27;4.68;;;4.28;;
10586;SDS011;5341;47.606;7.576;2023-08-30T02:33:56;4.80;;;4.10;;
10586;SDS011;5341;47.606;7.576;2023-08-30T02:36:23;4.68;;;4.15;;
10586;SDS011;5341;47.606;7.576;2023-08-30T02:38:51;4.28;;;3.88;;
10586;SDS011;5341;47.606;7.576;2023-08-30T02:41:19;5.05;;;3.88;;
10586;SDS011;5341;47.606;7.576;2023-08-30T02:43:47;4.90;;;4.40;;
10586;SDS011;5341;47.606;7.576;2023-08-30T02:46:15;4.47;;;4.07;;
10586;SDS011;5341;47.606;7.576;2023-08-30T02:48:44;7.20;;;4.53;;
10586;SDS011;5341;47.606;7.576;2023-08-30T02:51:13;4.57;;;3.72;;
10586;SDS011;5341;47.606;7.576;2023-08-30T02:53:40;4.72;;;4.07;;
10586;SDS011;5341;47.606;7.576;2023-08-30T02:56:08;4.35;;;3.72;;
10586;SDS011;5341;47.606;7.576;2023-08-30T02:58:36;5.47;;;3.72;;
10586;SDS011;5341;47.606;7.576;2023-08-30T03:01:05;4.00;;;3.60;;
10586;SDS011;5341;47.606;7.576;2023-08-30T03:03:33;3.67;;;3.30;;
10586;SDS011;5341;47.606;7.576;2023-08-30T03:06:01;3.80;;;3.35;;
10586;SDS011;5341;47.606;7.576;2023-08-30T03:08:30;5.47;;;3.60;;
10586;SDS011;5341;47.606;7.576;2023-08-30T03:11:07;4.55;;;3.33;;
10586;SDS011;5341;47.606;7.576;2023-08-30T03:13:35;3.97;;;3.33;;
10586;SDS011;5341;47.606;7.576;2023-08-30T03:16:09;5.13;;;3.20;;
10586;SDS011;5341;47.606;7.576;2023-08-30T03:18:37;3.55;;;2.67;;
10586;SDS011;5341;47.606;7.576;2023-08-30T03:21:05;3.30;;;3.00;;
10586;SDS011;5341;47.606;7.576;2023-08-30T03:23:34;4.90;;;3.30;;
10586;SDS011;5341;47.606;7.576;2023-08-30T03:26:07;3.90;;;3.28;;
10586;SDS011;5341;47.606;7.576;2023-08-30T03:28:35;4.10;;;3.10;;
10586;SDS011;5341;47.606;7.576;2023-08-30T03:31:10;5.85;;;3.20;;
10586;SDS011;5341;47.606;7.576;2023-08-30T03:33:39;3.00;;;2.75;;
10586;SDS011;5341;47.606;7.576;2023-08-30T03:36:08;3.95;;;3.00;;
10586;SDS011;5341;47.606;7.576;2023-08-30T03:38:39;3.75;;;3.30;;
10586;SDS011;5341;47.606;7.576;2023-08-30T03:41:07;4.93;;;3.05;;
10586;SDS011;5341;47.606;7.576;2023-08-30T03:43:35;4.47;;;3.08;;
10586;SDS011;5341;47.606;7.576;2023-08-30T03:46:02;3.70;;;3.03;;
10586;SDS011;5341;47.606;7.576;2023-08-30T03:48:30;4.57;;;3.00;;
10586;SDS011;5341;47.606;7.576;2023-08-30T03:50:58;3.38;;;2.95;;
10586;SDS011;5341;47.606;7.576;2023-08-30T03:53:26;4.05;;;2.70;;
10586;SDS011;5341;47.606;7.576;2023-08-30T03:55:59;5.38;;;2.83;;
10586;SDS011;5341;47.606;7.576;2023-08-30T03:58:29;3.70;;;2.83;;
10586;SDS011;5341;47.606;7.576;2023-08-30T04:00:56;3.38;;;2.80;;
10586;SDS011;5341;47.606;7.576;2023-08-30T04:03:24;3.45;;;2.78;;
10586;SDS011;5341;47.606;7.576;2023-08-30T04:05:54;3.92;;;2.80;;
10586;SDS011;5341;47.606;7.576;2023-08-30T04:08:23;3.80;;;2.95;;
10586;SDS011;5341;47.606;7.576;2023-08-30T04:10:51;2.70;;;2.50;;
10586;SDS011;5341;47.606;7.576;2023-08-30T04:13:21;3.10;;;2.90;;
10586;SDS011;5341;47.606;7.576;2023-08-30T04:15:49;2.90;;;2.70;;
10586;SDS011;5341;47.606;7.576;2023-08-30T04:18:18;3.40;;;2.75;;
10586;SDS011;5341;47.606;7.576;2023-08-30T04:20:45;4.32;;;2.90;;
10586;SDS011;5341;47.606;7.576;2023-08-30T04:23:13;3.67;;;2.90;;
10586;SDS011;5341;47.606;7.576;2023-08-30T04:25:43;2.92;;;2.63;;
10586;SDS011;5341;47.606;7.576;2023-08-30T04:28:11;4.50;;;2.83;;
10586;SDS011;5341;47.606;7.576;2023-08-30T04:30:40;3.67;;;3.13;;
10586;SDS011;5341;47.606;7.576;2023-08-30T04:33:08;4.68;;;3.05;;
10586;SDS011;5341;47.606;7.576;2023-08-30T04:35:35;4.40;;;3.13;;
10586;SDS011;5341;47.606;7.576;2023-08-30T04:38:04;4.25;;;3.05;;
10586;SDS011;5341;47.606;7.576;2023-08-30T04:40:31;3.25;;;2.92;;
10586;SDS011;5341;47.606;7.576;2023-08-30T04:43:00;3.42;;;3.13;;
10586;SDS011;5341;47.606;7.576;2023-08-30T04:45:31;7.38;;;3.17;;
10586;SDS011;5341;47.606;7.576;2023-08-30T04:48:05;4.40;;;3.30;;
10586;SDS011;5341;47.606;7.576;2023-08-30T04:50:34;3.58;;;3.20;;
10586;SDS011;5341;47.606;7.576;2023-08-30T04:53:02;4.15;;;3.75;;
10586;SDS011;5341;47.606;7.576;2023-08-30T04:55:30;3.95;;;3.55;;
10586;SDS011;5341;47.606;7.576;2023-08-30T04:57:58;4.93;;;3.00;;
10586;SDS011;5341;47.606;7.576;2023-08-30T05:00:31;3.80;;;3.13;;
10586;SDS011;5341;47.606;7.576;2023-08-30T05:02:59;3.53;;;3.22;;
10586;SDS011;5341;47.606;7.576;2023-08-30T05:05:28;4.03;;;3.65;;
10586;SDS011;5341;47.606;7.576;2023-08-30T05:07:57;4.50;;;4.10;;
10586;SDS011;5341;47.606;7.576;2023-08-30T05:10:25;5.55;;;3.75;;
10586;SDS011;5341;47.606;7.576;2023-08-30T05:12:53;4.15;;;3.70;;
10586;SDS011;5341;47.606;7.576;2023-08-30T05:15:21;5.07;;;4.25;;
10586;SDS011;5341;47.606;7.576;2023-08-30T05:17:48;5.20;;;4.60;;
10586;SDS011;5341;47.606;7.576;2023-08-30T05:20:16;4.70;;;4.18;;
10586;SDS011;5341;47.606;7.576;2023-08-30T05:22:45;5.57;;;5.07;;
10586;SDS011;5341;47.606;7.576;2023-08-30T05:25:13;4.97;;;4.47;;
10586;SDS011;5341;47.606;7.576;2023-08-30T05:27:40;6.25;;;5.07;;
10586;SDS011;5341;47.606;7.576;2023-08-30T05:30:09;5.03;;;4.50;;
10586;SDS011;5341;47.606;7.576;2023-08-30T05:32:38;5.70;;;4.68;;
10586;SDS011;5341;47.606;7.576;2023-08-30T05:35:19;7.03;;;4.63;;
10586;SDS011;5341;47.606;7.576;2023-08-30T05:38:07;4.57;;;4.15;;
10586;SDS011;5341;47.606;7.576;2023-08-30T05:40:54;4.72;;;4.20;;
10586;SDS011;5341;47.606;7.576;2023-08-30T05:43:22;4.75;;;4.25;;
10586;SDS011;5341;47.606;7.576;2023-08-30T05:45:49;5.47;;;4.40;;
10586;SDS011;5341;47.606;7.576;2023-08-30T05:48:17;5.68;;;4.38;;
10586;SDS011;5341;47.606;7.576;2023-08-30T05:50:44;5.07;;;4.18;;
10586;SDS011;5341;47.606;7.576;2023-08-30T05:53:13;4.68;;;4.07;;
10586;SDS011;5341;47.606;7.576;2023-08-30T05:55:41;5.82;;;3.90;;
10586;SDS011;5341;47.606;7.576;2023-08-30T05:58:09;3.95;;;3.53;;
10586;SDS011;5341;47.606;7.576;2023-08-30T06:00:37;5.38;;;4.18;;
10586;SDS011;5341;47.606;7.576;2023-08-30T06:03:04;5.55;;;4.00;;
10586;SDS011;5341;47.606;7.576;2023-08-30T06:05:32;5.15;;;3.78;;
10586;SDS011;5341;47.606;7.576;2023-08-30T06:08:00;5.20;;;3.85;;
10586;SDS011;5341;47.606;7.576;2023-08-30T06:10:29;3.80;;;3.50;;
10586;SDS011;5341;47.606;7.576;2023-08-30T06:12:56;4.03;;;3.72;;
10586;SDS011;5341;47.606;7.576;2023-08-30T06:15:24;4.18;;;3.78;;
10586;SDS011;5341;47.606;7.576;2023-08-30T06:17:52;3.90;;;3.55;;
10586;SDS011;5341;47.606;7.576;2023-08-30T06:20:19;4.30;;;3.78;;
10586;SDS011;5341;47.606;7.576;2023-08-30T06:22:46;4.32;;;3.78;;
10586;SDS011;5341;47.606;7.576;2023-08-30T06:25:14;4.63;;;2.60;;
10586;SDS011;5341;47.606;7.576;2023-08-30T06:27:54;4.25;;;3.40;;
10586;SDS011;5341;47.606;7.576;2023-08-30T06:30:22;4.32;;;3.92;;
10586;SDS011;5341;47.606;7.576;2023-08-30T06:32:50;3.75;;;3.45;;
10586;SDS011;5341;47.606;7.576;2023-08-30T06:35:18;3.70;;;3.40;;
10586;SDS011;5341;47.606;7.576;2023-08-30T06:37:45;3.95;;;3.55;;
10586;SDS011;5341;47.606;7.576;2023-08-30T06:40:13;4.82;;;4.13;;
10586;SDS011;5341;47.606;7.576;2023-08-30T06:42:40;4.72;;;3.55;;
10586;SDS011;5341;47.606;7.576;2023-08-30T06:45:09;3.65;;;3.35;;
10586;SDS011;5341;47.606;7.576;2023-08-30T06:47:37;3.85;;;3.53;;
10586;SDS011;5341;47.606;7.576;2023-08-30T06:50:05;5.45;;;3.92;;
10586;SDS011;5341;47.606;7.576;2023-08-30T06:52:35;4.07;;;3.67;;
10586;SDS011;5341;47.606;7.576;2023-08-30T06:55:02;3.85;;;3.45;;
10586;SDS011;5341;47.606;7.576;2023-08-30T06:57:30;5.00;;;4.28;;
10586;SDS011;5341;47.606;7.576;2023-08-30T06:59:58;5.10;;;3.40;;
10586;SDS011;5341;47.606;7.576;2023-08-30T07:02:34;3.60;;;3.30;;
10586;SDS011;5341;47.606;7.576;2023-08-30T07:05:04;4.85;;;3.47;;
10586;SDS011;5341;47.606;7.576;2023-08-30T07:07:32;5.28;;;3.22;;
10586;SDS011;5341;47.606;7.576;2023-08-30T07:09:59;4.47;;;3.75;;
10586;SDS011;5341;47.606;7.576;2023-08-30T07:12:28;4.95;;;3.75;;
10586;SDS011;5341;47.606;7.576;2023-08-30T07:14:55;3.80;;;3.15;;
10586;SDS011;5341;47.606;7.576;2023-08-30T07:17:22;4.43;;;3.67;;
10586;SDS011;5341;47.606;7.576;2023-08-30T07:19:52;3.78;;;3.42;;
10586;SDS011;5341;47.606;7.576;2023-08-30T07:22:19;4.13;;;3.47;;
10586;SDS011;5341;47.606;7.576;2023-08-30T07:24:47;4.60;;;3.17;;
10586;SDS011;5341;47.606;7.576;2023-08-30T07:27:14;3.95;;;3.40;;
10586;SDS011;5341;47.606;7.576;2023-08-30T07:29:42;4.53;;;3.60;;
10586;SDS011;5341;47.606;7.576;2023-08-30T07:32:10;3.58;;;3.28;;
10586;SDS011;5341;47.606;7.576;2023-08-30T07:34:37;3.80;;;3.50;;
10586;SDS011;5341;47.606;7.576;2023-08-30T07:37:15;3.47;;;3.08;;
10586;SDS011;5341;47.606;7.576;2023-08-30T07:39:44;5.15;;;3.45;;
10586;SDS011;5341;47.606;7.576;2023-08-30T07:42:11;3.88;;;3.50;;
10586;SDS011;5341;47.606;7.576;2023-08-30T07:44:39;3.25;;;2.92;;
10586;SDS011;5341;47.606;7.576;2023-08-30T07:47:07;3.08;;;2.78;;
10586;SDS011;5341;47.606;7.576;2023-08-30T07:49:34;3.20;;;2.90;;
10586;SDS011;5341;47.606;7.576;2023-08-30T07:52:02;5.40;;;3.20;;
10586;SDS011;5341;47.606;7.576;2023-08-30T07:54:31;2.92;;;2.67;;
10586;SDS011;5341;47.606;7.576;2023-08-30T07:56:58;3.17;;;2.92;;
10586;SDS011;5341;47.606;7.576;2023-08-30T07:59:26;4.63;;;2.70;;
10586;SDS011;5341;47.606;7.576;2023-08-30T08:01:53;3.17;;;2.88;;
10586;SDS011;5341;47.606;7.576;2023-08-30T08:04:21;3.03;;;2.80;;
10586;SDS011;5341;47.606;7.576;2023-08-30T08:06:48;2.63;;;2.42;;
10586;SDS011;5341;47.606;7.576;2023-08-30T08:09:16;2.90;;;2.50;;
10586;SDS011;5341;47.606;7.576;2023-08-30T08:11:45;2.90;;;2.60;;
10586;SDS011;5341;47.606;7.576;2023-08-30T08:14:13;4.25;;;2.97;;
10586;SDS011;5341;47.606;7.576;2023-08-30T08:16:40;4.60;;;2.78;;
10586;SDS011;5341;47.606;7.576;2023-08-30T08:19:08;4.47;;;2.53;;
10586;SDS011;5341;47.606;7.576;2023-08-30T08:21:38;4.57;;;2.53;;
10586;SDS011;5341;47.606;7.576;2023-08-30T08:24:06;5.20;;;2.83;;
10586;SDS011;5341;47.606;7.576;2023-08-30T08:26:33;3.38;;;2.70;;
10586;SDS011;5341;47.606;7.576;2023-08-30T08:29:02;3.78;;;2.90;;
10586;SDS011;5341;47.606;7.576;2023-08-30T08:31:30;4.03;;;2.88;;
10586;SDS011;5341;47.606;7.576;2023-08-30T08:34:08;5.03;;;2.95;;
10586;SDS011;5341;47.606;7.576;2023-08-30T08:36:36;4.93;;;3.15;;
10586;SDS011;5341;47.606;7.576;2023-08-30T08:39:07;5.82;;;3.00;;
10586;SDS011;5341;47.606;7.576;2023-08-30T08:41:37;3.50;;;2.97;;
10586;SDS011;5341;47.606;7.576;2023-08-30T08:44:08;5.32;;;3.03;;
10586;SDS011;5341;47.606;7.576;2023-08-30T08:46:37;3.30;;;3.00;;
10586;SDS011;5341;47.606;7.576;2023-08-30T08:49:08;5.78;;;2.88;;
10586;SDS011;5341;47.606;7.576;2023-08-30T08:51:39;4.32;;;3.03;;
10586;SDS011;5341;47.606;7.576;2023-08-30T08:54:08;3.10;;;2.80;;
10586;SDS011;5341;47.606;7.576;2023-08-30T08:56:37;4.35;;;2.80;;
10586;SDS011;5341;47.606;7.576;2023-08-30T08:59:06;6.47;;;2.95;;
10586;SDS011;5341;47.606;7.576;2023-08-30T09:01:35;3.65;;;3.03;;
10586;SDS011;5341;47.606;7.576;2023-08-30T09:04:05;4.65;;;2.70;;
10586;SDS011;5341;47.606;7.576;2023-08-30T09:06:33;3.55;;;2.70;;
10586;SDS011;5341;47.606;7.576;2023-08-30T09:09:01;3.20;;;2.85;;
10586;SDS011;5341;47.606;7.576;2023-08-30T09:11:30;3.30;;;3.00;;
10586;SDS011;5341;47.606;7.576;2023-08-30T09:13:58;3.13;;;2.50;;
10586;SDS011;5341;47.606;7.576;2023-08-30T09:16:27;4.05;;;2.90;;
10586;SDS011;5341;47.606;7.576;2023-08-30T09:18:58;4.47;;;2.53;;
10586;SDS011;5341;47.606;7.576;2023-08-30T09:21:26;3.30;;;2.78;;
10586;SDS011;5341;47.606;7.576;2023-08-30T09:23:57;4.00;;;2.75;;
10586;SDS011;5341;47.606;7.576;2023-08-30T09:26:25;3.25;;;2.50;;
10586;SDS011;5341;47.606;7.576;2023-08-30T09:28:54;3.47;;;3.03;;
10586;SDS011;5341;47.606;7.576;2023-08-30T09:31:22;3.88;;;3.25;;
10586;SDS011;5341;47.606;7.576;2023-08-30T09:33:50;4.47;;;2.83;;
10586;SDS011;5341;47.606;7.576;2023-08-30T09:36:19;4.85;;;2.50;;
10586;SDS011;5341;47.606;7.576;2023-08-30T09:38:49;5.05;;;2.85;;
10586;SDS011;5341;47.606;7.576;2023-08-30T09:41:18;3.47;;;2.85;;
10586;SDS011;5341;47.606;7.576;2023-08-30T09:43:45;5.05;;;2.55;;
10586;SDS011;5341;47.606;7.576;2023-08-30T09:46:13;3.00;;;2.70;;
10586;SDS011;5341;47.606;7.576;2023-08-30T09:48:41;3.75;;;2.75;;
10586;SDS011;5341;47.606;7.576;2023-08-30T09:51:10;4.05;;;3.00;;
10586;SDS011;5341;47.606;7.576;2023-08-30T09:53:42;4.80;;;2.70;;
10586;SDS011;5341;47.606;7.576;2023-08-30T09:56:12;3.60;;;2.72;;
10586;SDS011;5341;47.606;7.576;2023-08-30T09:58:41;3.30;;;2.50;;
10586;SDS011;5341;47.606;7.576;2023-08-30T10:01:09;2.60;;;2.40;;
10586;SDS011;5341;47.606;7.576;2023-08-30T10:03:37;2.70;;;2.50;;
10586;SDS011;5341;47.606;7.576;2023-08-30T10:06:05;2.80;;;2.47;;
10586;SDS011;5341;47.606;7.576;2023-08-30T10:08:35;2.65;;;2.30;;
10586;SDS011;5341;47.606;7.576;2023-08-30T10:11:05;2.63;;;2.00;;
10586;SDS011;5341;47.606;7.576;2023-08-30T10:13:33;2.60;;;2.40;;
10586;SDS011;5341;47.606;7.576;2023-08-30T10:16:05;3.67;;;2.28;;
10586;SDS011;5341;47.606;7.576;2023-08-30T10:18:34;3.75;;;2.10;;
10586;SDS011;5341;47.606;7.576;2023-08-30T10:21:05;2.67;;;2.20;;
10586;SDS011;5341;47.606;7.576;2023-08-30T10:23:36;2.33;;;2.10;;
10586;SDS011;5341;47.606;7.576;2023-08-30T10:26:06;4.32;;;2.05;;
10586;SDS011;5341;47.606;7.576;2023-08-30T10:28:34;3.30;;;2.40;;
10586;SDS011;5341;47.606;7.576;2023-08-30T10:31:04;2.90;;;2.25;;
10586;SDS011;5341;47.606;7.576;2023-08-30T10:33:32;2.95;;;2.22;;
10586;SDS011;5341;47.606;7.576;2023-08-30T10:36:04;2.38;;;2.17;;
10586;SDS011;5341;47.606;7.576;2023-08-30T10:38:32;2.08;;;1.80;;
10586;SDS011;5341;47.606;7.576;2023-08-30T10:41:08;3.20;;;2.10;;
10586;SDS011;5341;47.606;7.576;2023-08-30T10:43:36;2.67;;;1.80;;
10586;SDS011;5341;47.606;7.576;2023-08-30T10:46:04;2.70;;;2.10;;
10586;SDS011;5341;47.606;7.576;2023-08-30T10:48:34;2.28;;;2.05;;
10586;SDS011;5341;47.606;7.576;2023-08-30T10:51:02;4.18;;;1.90;;
10586;SDS011;5341;47.606;7.576;2023-08-30T10:53:31;2.40;;;1.95;;
10586;SDS011;5341;47.606;7.576;2023-08-30T10:56:09;1.80;;;1.70;;
10586;SDS011;5341;47.606;7.576;2023-08-30T10:58:43;2.90;;;1.90;;
10586;SDS011;5341;47.606;7.576;2023-08-30T11:01:11;2.25;;;1.80;;
10586;SDS011;5341;47.606;7.576;2023-08-30T11:03:40;3.80;;;1.85;;
10586;SDS011;5341;47.606;7.576;2023-08-30T11:06:13;1.90;;;1.80;;
10586;SDS011;5341;47.606;7.576;2023-08-30T11:08:42;3.13;;;1.98;;
10586;SDS011;5341;47.606;7.576;2023-08-30T11:11:14;2.00;;;1.80;;
10586;SDS011;5341;47.606;7.576;2023-08-30T11:13:41;2.63;;;1.90;;
10586;SDS011;5341;47.606;7.576;2023-08-30T11:16:08;2.63;;;1.77;;
10586;SDS011;5341;47.606;7.576;2023-08-30T11:18:37;4.68;;;2.05;;
10586;SDS011;5341;47.606;7.576;2023-08-30T11:21:07;2.88;;;2.00;;
10586;SDS011;5341;47.606;7.576;2023-08-30T11:23:35;2.53;;;2.00;;
10586;SDS011;5341;47.606;7.576;2023-08-30T11:26:03;2.55;;;1.85;;
10586;SDS011;5341;47.606;7.576;2023-08-30T11:28:32;2.50;;;1.90;;
10586;SDS011;5341;47.606;7.576;2023-08-30T11:30:59;4.20;;;1.77;;
10586;SDS011;5341;47.606;7.576;2023-08-30T11:33:27;3.17;;;2.00;;
10586;SDS011;5341;47.606;7.576;2023-08-30T11:35:54;2.38;;;1.90;;
10586;SDS011;5341;47.606;7.576;2023-08-30T11:38:21;2.00;;;1.70;;
10586;SDS011;5341;47.606;7.576;2023-08-30T11:40:49;2.13;;;1.70;;
10586;SDS011;5341;47.606;7.576;2023-08-30T11:43:18;4.07;;;2.10;;
10586;SDS011;5341;47.606;7.576;2023-08-30T11:45:48;2.45;;;2.00;;
10586;SDS011;5341;47.606;7.576;2023-08-30T11:48:23;2.30;;;1.60;;
10586;SDS011;5341;47.606;7.576;2023-08-30T11:50:50;4.68;;;1.90;;
10586;SDS011;5341;47.606;7.576;2023-08-30T11:53:18;2.33;;;1.88;;
10586;SDS011;5341;47.606;7.576;2023-08-30T11:55:45;2.35;;;1.60;;
10586;SDS011;5341;47.606;7.576;2023-08-30T11:58:13;1.73;;;1.50;;
10586;SDS011;5341;47.606;7.576;2023-08-30T12:00:41;1.92;;;1.60;;
10586;SDS011;5341;47.606;7.576;2023-08-30T12:03:12;2.58;;;1.60;;
10586;SDS011;5341;47.606;7.576;2023-08-30T12:05:43;1.90;;;1.70;;
10586;SDS011;5341;47.606;7.576;2023-08-30T12:08:17;2.75;;;1.70;;
10586;SDS011;5341;47.606;7.576;2023-08-30T12:10:45;2.60;;;1.70;;
10586;SDS011;5341;47.606;7.576;2023-08-30T12:13:20;1.42;;;1.33;;
10586;SDS011;5341;47.606;7.576;2023-08-30T12:15:48;1.50;;;1.40;;
10586;SDS011;5341;47.606;7.576;2023-08-30T12:18:17;4.30;;;1.80;;
10586;SDS011;5341;47.606;7.576;2023-08-30T12:20:52;1.95;;;1.50;;
10586;SDS011;5341;47.606;7.576;2023-08-30T12:23:21;2.65;;;1.42;;
10586;SDS011;5341;47.606;7.576;2023-08-30T12:26:02;3.55;;;1.70;;
10586;SDS011;5341;47.606;7.576;2023-08-30T12:28:31;1.95;;;1.40;;
10586;SDS011;5341;47.606;7.576;2023-08-30T12:31:00;2.67;;;1.60;;
10586;SDS011;5341;47.606;7.576;2023-08-30T12:33:31;1.40;;;1.30;;
10586;SDS011;5341;47.606;7.576;2023-08-30T12:35:59;2.28;;;1.48;;
10586;SDS011;5341;47.606;7.576;2023-08-30T12:38:28;2.25;;;1.52;;
10586;SDS011;5341;47.606;7.576;2023-08-30T12:40:55;2.42;;;1.60;;
10586;SDS011;5341;47.606;7.576;2023-08-30T12:43:23;2.65;;;1.42;;
10586;SDS011;5341;47.606;7.576;2023-08-30T12:45:50;2.95;;;1.70;;
10586;SDS011;5341;47.606;7.576;2023-08-30T12:48:18;2.08;;;1.33;;
10586;SDS011;5341;47.606;7.576;2023-08-30T12:50:47;2.92;;;1.58;;
10586;SDS011;5341;47.606;7.576;2023-08-30T12:53:14;3.20;;;1.40;;
10586;SDS011;5341;47.606;7.576;2023-08-30T12:55:43;2.30;;;1.65;;
10586;SDS011;5341;47.606;7.576;2023-08-30T12:58:10;1.90;;;1.52;;
10586;SDS011;5341;47.606;7.576;2023-08-30T13:00:39;3.10;;;1.50;;
10586;SDS011;5341;47.606;7.576;2023-08-30T13:03:07;1.70;;;1.55;;
10586;SDS011;5341;47.606;7.576;2023-08-30T13:05:34;1.70;;;1.50;;
10586;SDS011;5341;47.606;7.576;2023-08-30T13:08:03;2.42;;;1.60;;
10586;SDS011;5341;47.606;7.576;2023-08-30T13:10:31;2.15;;;1.50;;
10586;SDS011;5341;47.606;7.576;2023-08-30T13:12:58;2.80;;;1.40;;
10586;SDS011;5341;47.606;7.576;2023-08-30T13:15:26;2.13;;;1.60;;
10586;SDS011;5341;47.606;7.576;2023-08-30T13:17:53;3.30;;;1.77;;
10586;SDS011;5341;47.606;7.576;2023-08-30T13:20:21;4.43;;;1.50;;
10586;SDS011;5341;47.606;7.576;2023-08-30T13:22:48;2.42;;;1.60;;
10586;SDS011;5341;47.606;7.576;2023-08-30T13:25:17;2.55;;;1.50;;
10586;SDS011;5341;47.606;7.576;2023-08-30T13:27:45;2.22;;;1.60;;
10586;SDS011;5341;47.606;7.576;2023-08-30T13:30:14;1.70;;;1.40;;
10586;SDS011;5341;47.606;7.576;2023-08-30T13:32:41;3.50;;;1.70;;
10586;SDS011;5341;47.606;7.576;2023-08-30T13:35:09;2.35;;;1.65;;
10586;SDS011;5341;47.606;7.576;2023-08-30T13:37:36;2.35;;;1.70;;
10586;SDS011;5341;47.606;7.576;2023-08-30T13:40:04;2.40;;;1.77;;
10586;SDS011;5341;47.606;7.576;2023-08-30T13:42:34;3.00;;;1.45;;
10586;SDS011;5341;47.606;7.576;2023-08-30T13:45:01;2.70;;;1.48;;
10586;SDS011;5341;47.606;7.576;2023-08-30T13:47:31;2.45;;;1.60;;
10586;SDS011;5341;47.606;7.576;2023-08-30T13:49:58;2.03;;;1.55;;
10586;SDS011;5341;47.606;7.576;2023-08-30T13:52:27;1.80;;;1.40;;
10586;SDS011;5341;47.606;7.576;2023-08-30T13:54:55;1.90;;;1.67;;
10586;SDS011;5341;47.606;7.576;2023-08-30T13:57:23;2.85;;;1.60;;
10586;SDS011;5341;47.606;7.576;2023-08-30T13:59:52;1.42;;;1.33;;
10586;SDS011;5341;47.606;7.576;2023-08-30T14:02:20;2.58;;;1.70;;
10586;SDS011;5341;47.606;7.576;2023-08-30T14:04:47;2.03;;;1.60;;
10586;SDS011;5341;47.606;7.576;2023-08-30T14:07:15;1.92;;;1.60;;
10586;SDS011;5341;47.606;7.576;2023-08-30T14:09:42;2.45;;;1.67;;
10586;SDS011;5341;47.606;7.576;2023-08-30T14:12:10;1.85;;;1.50;;
10586;SDS011;5341;47.606;7.576;2023-08-30T14:14:37;3.20;;;1.48;;
10586;SDS011;5341;47.606;7.576;2023-08-30T14:17:05;1.95;;;1.52;;
10586;SDS011;5341;47.606;7.576;2023-08-30T14:19:33;1.55;;;1.42;;
10586;SDS011;5341;47.606;7.576;2023-08-30T14:22:01;1.48;;;1.38;;
10586;SDS011;5341;47.606;7.576;2023-08-30T14:24:31;3.22;;;1.50;;
10586;SDS011;5341;47.606;7.576;2023-08-30T14:26:59;2.50;;;1.60;;
10586;SDS011;5341;47.606;7.576;2023-08-30T14:29:27;1.50;;;1.40;;
10586;SDS011;5341;47.606;7.576;2023-08-30T14:31:54;2.30;;;1.42;;
10586;SDS011;5341;47.606;7.576;2023-08-30T14:34:23;2.58;;;1.63;;
10586;SDS011;5341;47.606;7.576;2023-08-30T14:36:51;1.95;;;1.40;;
10586;SDS011;5341;47.606;7.576;2023-08-30T14:39:18;2.38;;;1.77;;
10586;SDS011;5341;47.606;7.576;2023-08-30T14:41:46;4.90;;;1.63;;
10586;SDS011;5341;47.606;7.576;2023-08-30T14:44:13;2.75;;;1.70;;
10586;SDS011;5341;47.606;7.576;2023-08-30T14:46:42;2.10;;;1.63;;
10586;SDS011;5341;47.606;7.576;2023-08-30T14:49:09;2.30;;;1.80;;
10586;SDS011;5341;47.606;7.576;2023-08-30T14:51:38;2.22;;;1.60;;
10586;SDS011;5341;47.606;7.576;2023-08-30T14:54:06;2.33;;;1.65;;
10586;SDS011;5341;47.606;7.576;2023-08-30T14:56:33;1.98;;;1.63;;
10586;SDS011;5341;47.606;7.576;2023-08-30T14:59:01;2.47;;;1.67;;
10586;SDS011;5341;47.606;7.576;2023-08-30T15:01:28;2.20;;;1.70;;
10586;SDS011;5341;47.606;7.576;2023-08-30T15:03:56;2.15;;;1.75;;
10586;SDS011;5341;47.606;7.576;2023-08-30T15:06:23;1.70;;;1.60;;
10586;SDS011;5341;47.606;7.576;2023-08-30T15:08:52;1.95;;;1.60;;
10586;SDS011;5341;47.606;7.576;2023-08-30T15:11:20;1.83;;;1.70;;